sensor_id;sensor_type;location;lat;lon;timestamp;P1;durP1;ratioP1;P2;durP2;ratioP2
19891;SDS011;10108;50.142;8.724;2023-05-13T00:00:02;17.25;;;9.60;;
19891;SDS011;10108;50.142;8.724;2023-05-13T00:02:30;13.07;;;9.45;;
19891;SDS011;10108;50.142;8.724;2023-05-13T00:04:56;17.08;;;10.00;;
19891;SDS011;10108;50.142;8.724;2023-05-13T00:07:22;14.88;;;10.20;;
19891;SDS011;10108;50.142;8.724;2023-05-13T00:09:48;13.30;;;10.25;;
19891;SDS011;10108;50.142;8.724;2023-05-13T00:12:14;15.80;;;9.77;;
19891;SDS011;10108;50.142;8.724;2023-05-13T00:14:40;13.50;;;10.88;;
19891;SDS011;10108;50.142;8.724;2023-05-13T00:17:06;14.90;;;11.07;;
19891;SDS011;10108;50.142;8.724;2023-05-13T00:19:33;14.98;;;10.05;;
19891;SDS011;10108;50.142;8.724;2023-05-13T00:21:59;13.43;;;10.50;;
19891;SDS011;10108;50.142;8.724;2023-05-13T00:24:25;15.40;;;10.70;;
19891;SDS011;10108;50.142;8.724;2023-05-13T00:26:52;17.55;;;10.68;;
19891;SDS011;10108;50.142;8.724;2023-05-13T00:29:18;12.15;;;9.82;;
19891;SDS011;10108;50.142;8.724;2023-05-13T00:31:44;17.75;;;10.43;;
19891;SDS011;10108;50.142;8.724;2023-05-13T00:34:10;11.40;;;9.27;;
19891;SDS011;10108;50.142;8.724;2023-05-13T00:36:36;13.85;;;10.05;;
19891;SDS011;10108;50.142;8.724;2023-05-13T00:39:03;15.38;;;9.80;;
19891;SDS011;10108;50.142;8.724;2023-05-13T00:41:29;13.43;;;9.77;;
19891;SDS011;10108;50.142;8.724;2023-05-13T00:43:55;12.98;;;9.55;;
19891;SDS011;10108;50.142;8.724;2023-05-13T00:46:22;13.13;;;9.30;;
19891;SDS011;10108;50.142;8.724;2023-05-13T00:48:49;13.05;;;9.40;;
19891;SDS011;10108;50.142;8.724;2023-05-13T00:51:16;14.18;;;10.50;;
19891;SDS011;10108;50.142;8.724;2023-05-13T00:53:42;13.63;;;9.38;;
19891;SDS011;10108;50.142;8.724;2023-05-13T00:56:09;12.20;;;9.23;;
19891;SDS011;10108;50.142;8.724;2023-05-13T00:58:35;13.57;;;9.55;;
19891;SDS011;10108;50.142;8.724;2023-05-13T01:01:16;13.63;;;9.93;;
19891;SDS011;10108;50.142;8.724;2023-05-13T01:12:58;16.13;;;8.85;;
19891;SDS011;10108;50.142;8.724;2023-05-13T01:15:29;13.15;;;8.95;;
19891;SDS011;10108;50.142;8.724;2023-05-13T01:17:59;13.75;;;8.95;;
19891;SDS011;10108;50.142;8.724;2023-05-13T01:20:40;13.20;;;8.90;;
19891;SDS011;10108;50.142;8.724;2023-05-13T01:23:08;11.75;;;8.93;;
19891;SDS011;10108;50.142;8.724;2023-05-13T01:25:35;13.68;;;9.40;;
19891;SDS011;10108;50.142;8.724;2023-05-13T01:28:02;11.95;;;9.02;;
19891;SDS011;10108;50.142;8.724;2023-05-13T01:30:29;15.55;;;9.15;;
19891;SDS011;10108;50.142;8.724;2023-05-13T01:32:56;13.18;;;8.70;;
19891;SDS011;10108;50.142;8.724;2023-05-13T01:35:22;10.75;;;8.30;;
19891;SDS011;10108;50.142;8.724;2023-05-13T01:37:50;12.27;;;9.07;;
19891;SDS011;10108;50.142;8.724;2023-05-13T01:40:17;11.75;;;8.77;;
19891;SDS011;10108;50.142;8.724;2023-05-13T01:42:43;13.73;;;8.77;;
19891;SDS011;10108;50.142;8.724;2023-05-13T01:45:10;13.07;;;8.68;;
19891;SDS011;10108;50.142;8.724;2023-05-13T01:47:37;11.13;;;8.65;;
19891;SDS011;10108;50.142;8.724;2023-05-13T01:50:04;11.80;;;8.27;;
19891;SDS011;10108;50.142;8.724;2023-05-13T01:52:33;11.50;;;8.38;;
19891;SDS011;10108;50.142;8.724;2023-05-13T01:54:59;13.50;;;8.50;;
19891;SDS011;10108;50.142;8.724;2023-05-13T01:57:25;13.43;;;8.45;;
19891;SDS011;10108;50.142;8.724;2023-05-13T01:59:51;11.90;;;7.93;;
19891;SDS011;10108;50.142;8.724;2023-05-13T02:02:17;12.38;;;8.27;;
19891;SDS011;10108;50.142;8.724;2023-05-13T02:04:43;13.70;;;8.68;;
19891;SDS011;10108;50.142;8.724;2023-05-13T02:07:10;11.85;;;8.25;;
19891;SDS011;10108;50.142;8.724;2023-05-13T02:09:36;11.07;;;8.43;;
19891;SDS011;10108;50.142;8.724;2023-05-13T02:12:04;12.48;;;8.38;;
19891;SDS011;10108;50.142;8.724;2023-05-13T02:14:30;11.40;;;8.32;;
19891;SDS011;10108;50.142;8.724;2023-05-13T02:16:57;11.50;;;8.40;;
19891;SDS011;10108;50.142;8.724;2023-05-13T02:19:23;13.70;;;8.27;;
19891;SDS011;10108;50.142;8.724;2023-05-13T02:21:49;16.00;;;8.90;;
19891;SDS011;10108;50.142;8.724;2023-05-13T02:24:15;12.48;;;8.45;;
19891;SDS011;10108;50.142;8.724;2023-05-13T02:26:41;14.23;;;8.88;;
19891;SDS011;10108;50.142;8.724;2023-05-13T02:29:09;12.18;;;8.18;;
19891;SDS011;10108;50.142;8.724;2023-05-13T02:31:35;11.75;;;8.23;;
19891;SDS011;10108;50.142;8.724;2023-05-13T02:34:01;13.20;;;8.23;;
19891;SDS011;10108;50.142;8.724;2023-05-13T02:36:28;13.82;;;8.40;;
19891;SDS011;10108;50.142;8.724;2023-05-13T02:38:54;14.32;;;8.27;;
19891;SDS011;10108;50.142;8.724;2023-05-13T02:41:20;13.13;;;8.20;;
19891;SDS011;10108;50.142;8.724;2023-05-13T02:43:48;11.60;;;8.30;;
19891;SDS011;10108;50.142;8.724;2023-05-13T02:46:14;12.38;;;8.68;;
19891;SDS011;10108;50.142;8.724;2023-05-13T02:48:43;14.30;;;8.18;;
19891;SDS011;10108;50.142;8.724;2023-05-13T02:51:09;11.45;;;8.45;;
19891;SDS011;10108;50.142;8.724;2023-05-13T02:53:35;13.93;;;8.32;;
19891;SDS011;10108;50.142;8.724;2023-05-13T02:56:04;11.23;;;8.07;;
19891;SDS011;10108;50.142;8.724;2023-05-13T02:58:30;11.98;;;8.40;;
19891;SDS011;10108;50.142;8.724;2023-05-13T03:00:58;13.10;;;8.50;;
19891;SDS011;10108;50.142;8.724;2023-05-13T03:03:24;11.80;;;8.02;;
19891;SDS011;10108;50.142;8.724;2023-05-13T03:05:50;13.13;;;7.80;;
19891;SDS011;10108;50.142;8.724;2023-05-13T03:08:16;13.27;;;8.27;;
19891;SDS011;10108;50.142;8.724;2023-05-13T03:10:42;12.27;;;8.43;;
19891;SDS011;10108;50.142;8.724;2023-05-13T03:13:08;11.90;;;8.10;;
19891;SDS011;10108;50.142;8.724;2023-05-13T03:15:35;12.52;;;8.10;;
19891;SDS011;10108;50.142;8.724;2023-05-13T03:18:01;13.05;;;8.35;;
19891;SDS011;10108;50.142;8.724;2023-05-13T03:20:27;13.93;;;8.07;;
19891;SDS011;10108;50.142;8.724;2023-05-13T03:22:53;12.00;;;8.50;;
19891;SDS011;10108;50.142;8.724;2023-05-13T03:25:19;14.18;;;7.85;;
19891;SDS011;10108;50.142;8.724;2023-05-13T03:27:50;22.17;;;8.07;;
19891;SDS011;10108;50.142;8.724;2023-05-13T03:30:19;11.93;;;7.90;;
19891;SDS011;10108;50.142;8.724;2023-05-13T03:32:58;12.18;;;7.78;;
19891;SDS011;10108;50.142;8.724;2023-05-13T03:35:24;11.07;;;8.25;;
19891;SDS011;10108;50.142;8.724;2023-05-13T03:37:51;10.50;;;8.05;;
19891;SDS011;10108;50.142;8.724;2023-05-13T03:40:17;11.55;;;8.77;;
19891;SDS011;10108;50.142;8.724;2023-05-13T03:42:44;14.45;;;9.13;;
19891;SDS011;10108;50.142;8.724;2023-05-13T03:45:11;11.48;;;8.18;;
19891;SDS011;10108;50.142;8.724;2023-05-13T03:47:39;12.60;;;8.63;;
19891;SDS011;10108;50.142;8.724;2023-05-13T03:50:09;13.57;;;9.18;;
19891;SDS011;10108;50.142;8.724;2023-05-13T03:52:40;12.27;;;9.10;;
19891;SDS011;10108;50.142;8.724;2023-05-13T03:55:07;12.63;;;8.88;;
19891;SDS011;10108;50.142;8.724;2023-05-13T03:57:33;12.90;;;8.98;;
19891;SDS011;10108;50.142;8.724;2023-05-13T04:00:00;14.50;;;9.05;;
19891;SDS011;10108;50.142;8.724;2023-05-13T04:02:26;14.10;;;9.35;;
19891;SDS011;10108;50.142;8.724;2023-05-13T04:04:52;14.45;;;9.30;;
19891;SDS011;10108;50.142;8.724;2023-05-13T04:07:18;12.10;;;8.90;;
19891;SDS011;10108;50.142;8.724;2023-05-13T04:09:44;14.13;;;8.82;;
19891;SDS011;10108;50.142;8.724;2023-05-13T04:12:10;14.98;;;9.30;;
19891;SDS011;10108;50.142;8.724;2023-05-13T04:14:38;14.00;;;9.10;;
19891;SDS011;10108;50.142;8.724;2023-05-13T04:17:04;14.18;;;9.60;;
19891;SDS011;10108;50.142;8.724;2023-05-13T04:19:30;16.60;;;9.35;;
19891;SDS011;10108;50.142;8.724;2023-05-13T04:21:56;13.90;;;9.32;;
19891;SDS011;10108;50.142;8.724;2023-05-13T04:24:22;12.65;;;9.40;;
19891;SDS011;10108;50.142;8.724;2023-05-13T04:26:48;16.90;;;9.75;;
19891;SDS011;10108;50.142;8.724;2023-05-13T04:29:16;13.50;;;9.25;;
19891;SDS011;10108;50.142;8.724;2023-05-13T04:31:43;12.68;;;9.05;;
19891;SDS011;10108;50.142;8.724;2023-05-13T04:34:10;12.25;;;8.93;;
19891;SDS011;10108;50.142;8.724;2023-05-13T04:36:36;13.05;;;9.25;;
19891;SDS011;10108;50.142;8.724;2023-05-13T04:39:02;14.00;;;8.52;;
19891;SDS011;10108;50.142;8.724;2023-05-13T04:41:28;13.73;;;9.02;;
19891;SDS011;10108;50.142;8.724;2023-05-13T04:43:55;13.88;;;9.43;;
19891;SDS011;10108;50.142;8.724;2023-05-13T04:46:21;12.00;;;8.93;;
19891;SDS011;10108;50.142;8.724;2023-05-13T04:48:50;13.18;;;9.02;;
19891;SDS011;10108;50.142;8.724;2023-05-13T04:51:17;12.05;;;8.85;;
19891;SDS011;10108;50.142;8.724;2023-05-13T04:53:43;12.75;;;8.68;;
19891;SDS011;10108;50.142;8.724;2023-05-13T04:56:10;13.85;;;8.77;;
19891;SDS011;10108;50.142;8.724;2023-05-13T04:58:36;14.32;;;8.60;;
19891;SDS011;10108;50.142;8.724;2023-05-13T05:01:03;13.15;;;9.05;;
19891;SDS011;10108;50.142;8.724;2023-05-13T05:03:29;12.98;;;8.80;;
19891;SDS011;10108;50.142;8.724;2023-05-13T05:05:57;12.95;;;8.65;;
19891;SDS011;10108;50.142;8.724;2023-05-13T05:08:23;14.57;;;8.68;;
19891;SDS011;10108;50.142;8.724;2023-05-13T05:10:50;12.73;;;8.20;;
19891;SDS011;10108;50.142;8.724;2023-05-13T05:13:16;12.65;;;8.80;;
19891;SDS011;10108;50.142;8.724;2023-05-13T05:15:43;11.68;;;8.77;;
19891;SDS011;10108;50.142;8.724;2023-05-13T05:18:09;13.10;;;8.27;;
19891;SDS011;10108;50.142;8.724;2023-05-13T05:20:37;11.63;;;8.73;;
19891;SDS011;10108;50.142;8.724;2023-05-13T05:23:05;12.60;;;8.73;;
19891;SDS011;10108;50.142;8.724;2023-05-13T05:25:33;12.05;;;8.18;;
19891;SDS011;10108;50.142;8.724;2023-05-13T05:27:59;15.07;;;9.02;;
19891;SDS011;10108;50.142;8.724;2023-05-13T05:30:25;12.05;;;8.07;;
19891;SDS011;10108;50.142;8.724;2023-05-13T05:33:00;14.48;;;8.27;;
19891;SDS011;10108;50.142;8.724;2023-05-13T05:35:26;12.43;;;8.00;;
19891;SDS011;10108;50.142;8.724;2023-05-13T05:37:52;13.52;;;8.40;;
19891;SDS011;10108;50.142;8.724;2023-05-13T05:40:18;11.77;;;8.38;;
19891;SDS011;10108;50.142;8.724;2023-05-13T05:42:45;13.50;;;8.55;;
19891;SDS011;10108;50.142;8.724;2023-05-13T05:45:11;12.45;;;8.45;;
19891;SDS011;10108;50.142;8.724;2023-05-13T05:47:38;11.13;;;8.07;;
19891;SDS011;10108;50.142;8.724;2023-05-13T05:50:04;11.18;;;8.30;;
19891;SDS011;10108;50.142;8.724;2023-05-13T05:52:30;15.45;;;8.65;;
19891;SDS011;10108;50.142;8.724;2023-05-13T05:54:57;13.15;;;8.55;;
19891;SDS011;10108;50.142;8.724;2023-05-13T05:57:23;16.02;;;8.90;;
19891;SDS011;10108;50.142;8.724;2023-05-13T05:59:49;14.93;;;9.90;;
19891;SDS011;10108;50.142;8.724;2023-05-13T06:02:16;12.63;;;9.07;;
19891;SDS011;10108;50.142;8.724;2023-05-13T06:04:42;12.80;;;8.30;;
19891;SDS011;10108;50.142;8.724;2023-05-13T06:07:08;10.88;;;8.18;;
19891;SDS011;10108;50.142;8.724;2023-05-13T06:09:34;14.55;;;8.00;;
19891;SDS011;10108;50.142;8.724;2023-05-13T06:12:02;11.55;;;7.97;;
19891;SDS011;10108;50.142;8.724;2023-05-13T06:14:31;10.98;;;8.10;;
19891;SDS011;10108;50.142;8.724;2023-05-13T06:16:57;12.07;;;8.90;;
19891;SDS011;10108;50.142;8.724;2023-05-13T06:19:23;10.68;;;7.97;;
19891;SDS011;10108;50.142;8.724;2023-05-13T06:21:49;10.57;;;8.02;;
19891;SDS011;10108;50.142;8.724;2023-05-13T06:24:16;10.77;;;7.88;;
19891;SDS011;10108;50.142;8.724;2023-05-13T06:26:42;14.30;;;8.13;;
19891;SDS011;10108;50.142;8.724;2023-05-13T06:29:08;10.13;;;7.57;;
19891;SDS011;10108;50.142;8.724;2023-05-13T06:31:34;13.07;;;8.10;;
19891;SDS011;10108;50.142;8.724;2023-05-13T06:34:01;12.75;;;8.40;;
19891;SDS011;10108;50.142;8.724;2023-05-13T06:36:27;11.57;;;7.88;;
19891;SDS011;10108;50.142;8.724;2023-05-13T06:38:54;14.02;;;8.52;;
19891;SDS011;10108;50.142;8.724;2023-05-13T06:41:21;12.23;;;7.47;;
19891;SDS011;10108;50.142;8.724;2023-05-13T06:43:50;13.80;;;7.60;;
19891;SDS011;10108;50.142;8.724;2023-05-13T06:46:20;11.20;;;7.30;;
19891;SDS011;10108;50.142;8.724;2023-05-13T06:48:47;11.18;;;7.47;;
19891;SDS011;10108;50.142;8.724;2023-05-13T06:51:16;12.82;;;7.82;;
19891;SDS011;10108;50.142;8.724;2023-05-13T06:53:42;13.70;;;7.72;;
19891;SDS011;10108;50.142;8.724;2023-05-13T06:56:09;11.57;;;7.75;;
19891;SDS011;10108;50.142;8.724;2023-05-13T06:58:35;12.98;;;7.50;;
19891;SDS011;10108;50.142;8.724;2023-05-13T07:01:01;10.55;;;7.35;;
19891;SDS011;10108;50.142;8.724;2023-05-13T07:03:27;10.13;;;7.20;;
19891;SDS011;10108;50.142;8.724;2023-05-13T07:05:53;12.40;;;7.10;;
19891;SDS011;10108;50.142;8.724;2023-05-13T07:08:20;11.38;;;7.30;;
19891;SDS011;10108;50.142;8.724;2023-05-13T07:10:46;11.57;;;6.88;;
19891;SDS011;10108;50.142;8.724;2023-05-13T07:13:12;10.68;;;6.88;;
19891;SDS011;10108;50.142;8.724;2023-05-13T07:15:39;13.07;;;7.05;;
19891;SDS011;10108;50.142;8.724;2023-05-13T07:18:05;13.07;;;7.28;;
19891;SDS011;10108;50.142;8.724;2023-05-13T07:20:31;12.50;;;7.10;;
19891;SDS011;10108;50.142;8.724;2023-05-13T07:22:57;12.80;;;7.55;;
19891;SDS011;10108;50.142;8.724;2023-05-13T07:25:23;10.48;;;7.03;;
19891;SDS011;10108;50.142;8.724;2023-05-13T07:27:50;10.63;;;6.95;;
19891;SDS011;10108;50.142;8.724;2023-05-13T07:30:16;14.50;;;7.00;;
19891;SDS011;10108;50.142;8.724;2023-05-13T07:32:42;10.15;;;6.80;;
19891;SDS011;10108;50.142;8.724;2023-05-13T07:35:08;10.05;;;7.18;;
19891;SDS011;10108;50.142;8.724;2023-05-13T07:37:35;9.48;;;6.80;;
19891;SDS011;10108;50.142;8.724;2023-05-13T07:40:01;10.68;;;7.30;;
19891;SDS011;10108;50.142;8.724;2023-05-13T07:42:29;10.65;;;6.68;;
19891;SDS011;10108;50.142;8.724;2023-05-13T07:44:55;10.40;;;6.95;;
19891;SDS011;10108;50.142;8.724;2023-05-13T07:47:21;9.43;;;6.95;;
19891;SDS011;10108;50.142;8.724;2023-05-13T07:49:48;9.75;;;6.45;;
19891;SDS011;10108;50.142;8.724;2023-05-13T07:52:14;9.88;;;6.60;;
19891;SDS011;10108;50.142;8.724;2023-05-13T07:54:40;9.23;;;6.88;;
19891;SDS011;10108;50.142;8.724;2023-05-13T07:57:06;10.52;;;7.00;;
19891;SDS011;10108;50.142;8.724;2023-05-13T07:59:33;9.52;;;6.63;;
19891;SDS011;10108;50.142;8.724;2023-05-13T08:01:59;11.30;;;6.63;;
19891;SDS011;10108;50.142;8.724;2023-05-13T08:04:25;9.80;;;6.82;;
19891;SDS011;10108;50.142;8.724;2023-05-13T08:06:51;10.73;;;6.50;;
19891;SDS011;10108;50.142;8.724;2023-05-13T08:09:17;9.55;;;6.82;;
19891;SDS011;10108;50.142;8.724;2023-05-13T08:11:43;10.40;;;6.43;;
19891;SDS011;10108;50.142;8.724;2023-05-13T08:14:09;8.85;;;6.07;;
19891;SDS011;10108;50.142;8.724;2023-05-13T08:16:36;11.15;;;6.47;;
19891;SDS011;10108;50.142;8.724;2023-05-13T08:19:02;9.57;;;6.47;;
19891;SDS011;10108;50.142;8.724;2023-05-13T08:21:28;11.23;;;6.70;;
19891;SDS011;10108;50.142;8.724;2023-05-13T08:23:54;12.60;;;6.40;;
19891;SDS011;10108;50.142;8.724;2023-05-13T08:26:21;9.68;;;6.18;;
19891;SDS011;10108;50.142;8.724;2023-05-13T08:28:47;9.15;;;6.60;;
19891;SDS011;10108;50.142;8.724;2023-05-13T08:31:14;10.40;;;6.75;;
19891;SDS011;10108;50.142;8.724;2023-05-13T08:33:40;9.65;;;6.13;;
19891;SDS011;10108;50.142;8.724;2023-05-13T08:36:07;9.93;;;6.53;;
19891;SDS011;10108;50.142;8.724;2023-05-13T08:38:33;10.25;;;6.10;;
19891;SDS011;10108;50.142;8.724;2023-05-13T08:41:02;10.82;;;6.43;;
19891;SDS011;10108;50.142;8.724;2023-05-13T08:43:29;9.57;;;6.40;;
19891;SDS011;10108;50.142;8.724;2023-05-13T08:45:58;8.90;;;6.35;;
19891;SDS011;10108;50.142;8.724;2023-05-13T08:48:28;9.30;;;6.22;;
19891;SDS011;10108;50.142;8.724;2023-05-13T08:50:56;10.48;;;7.00;;
19891;SDS011;10108;50.142;8.724;2023-05-13T08:53:24;12.18;;;6.53;;
19891;SDS011;10108;50.142;8.724;2023-05-13T08:55:50;12.55;;;6.32;;
19891;SDS011;10108;50.142;8.724;2023-05-13T08:58:17;10.77;;;6.38;;
19891;SDS011;10108;50.142;8.724;2023-05-13T09:00:43;9.48;;;6.50;;
19891;SDS011;10108;50.142;8.724;2023-05-13T09:03:10;9.65;;;6.38;;
19891;SDS011;10108;50.142;8.724;2023-05-13T09:05:37;10.23;;;6.57;;
19891;SDS011;10108;50.142;8.724;2023-05-13T09:08:06;9.40;;;6.43;;
19891;SDS011;10108;50.142;8.724;2023-05-13T09:10:35;10.88;;;6.78;;
19891;SDS011;10108;50.142;8.724;2023-05-13T09:13:02;8.88;;;6.20;;
19891;SDS011;10108;50.142;8.724;2023-05-13T09:15:29;9.98;;;6.88;;
19891;SDS011;10108;50.142;8.724;2023-05-13T09:17:59;11.23;;;6.53;;
19891;SDS011;10108;50.142;8.724;2023-05-13T09:20:28;8.88;;;6.22;;
19891;SDS011;10108;50.142;8.724;2023-05-13T09:22:57;10.32;;;6.70;;
19891;SDS011;10108;50.142;8.724;2023-05-13T09:25:28;8.93;;;6.50;;
19891;SDS011;10108;50.142;8.724;2023-05-13T09:27:56;8.70;;;6.22;;
19891;SDS011;10108;50.142;8.724;2023-05-13T09:30:27;9.95;;;6.10;;
19891;SDS011;10108;50.142;8.724;2023-05-13T09:35:49;8.73;;;5.95;;
19891;SDS011;10108;50.142;8.724;2023-05-13T09:38:26;8.68;;;6.03;;
19891;SDS011;10108;50.142;8.724;2023-05-13T09:40:56;9.05;;;5.82;;
19891;SDS011;10108;50.142;8.724;2023-05-13T09:43:25;9.32;;;5.88;;
19891;SDS011;10108;50.142;8.724;2023-05-13T09:45:54;9.43;;;6.10;;
19891;SDS011;10108;50.142;8.724;2023-05-13T09:48:21;8.95;;;5.95;;
19891;SDS011;10108;50.142;8.724;2023-05-13T09:50:51;10.23;;;6.30;;
19891;SDS011;10108;50.142;8.724;2023-05-13T09:53:18;9.95;;;6.35;;
19891;SDS011;10108;50.142;8.724;2023-05-13T09:55:47;8.95;;;6.05;;
19891;SDS011;10108;50.142;8.724;2023-05-13T09:58:14;8.23;;;5.97;;
19891;SDS011;10108;50.142;8.724;2023-05-13T10:00:41;10.27;;;6.22;;
19891;SDS011;10108;50.142;8.724;2023-05-13T10:03:08;8.68;;;6.20;;
19891;SDS011;10108;50.142;8.724;2023-05-13T10:05:36;12.18;;;6.35;;
19891;SDS011;10108;50.142;8.724;2023-05-13T10:08:04;10.52;;;6.10;;
19891;SDS011;10108;50.142;8.724;2023-05-13T10:10:36;8.85;;;5.95;;
19891;SDS011;10108;50.142;8.724;2023-05-13T10:13:23;10.68;;;6.55;;
19891;SDS011;10108;50.142;8.724;2023-05-13T10:15:50;11.27;;;6.13;;
19891;SDS011;10108;50.142;8.724;2023-05-13T10:18:18;9.68;;;6.72;;
19891;SDS011;10108;50.142;8.724;2023-05-13T10:20:45;9.32;;;6.50;;
19891;SDS011;10108;50.142;8.724;2023-05-13T10:23:12;8.77;;;6.60;;
19891;SDS011;10108;50.142;8.724;2023-05-13T10:25:38;9.20;;;6.38;;
19891;SDS011;10108;50.142;8.724;2023-05-13T10:28:06;10.10;;;6.03;;
19891;SDS011;10108;50.142;8.724;2023-05-13T10:30:33;9.65;;;6.40;;
19891;SDS011;10108;50.142;8.724;2023-05-13T10:33:00;10.65;;;6.88;;
19891;SDS011;10108;50.142;8.724;2023-05-13T10:35:28;8.80;;;6.47;;
19891;SDS011;10108;50.142;8.724;2023-05-13T10:38:16;12.40;;;7.88;;
19891;SDS011;10108;50.142;8.724;2023-05-13T10:41:10;15.80;;;9.90;;
19891;SDS011;10108;50.142;8.724;2023-05-13T10:43:55;10.07;;;7.07;;
19891;SDS011;10108;50.142;8.724;2023-05-13T10:46:22;9.93;;;6.20;;
19891;SDS011;10108;50.142;8.724;2023-05-13T10:48:49;9.20;;;6.20;;
19891;SDS011;10108;50.142;8.724;2023-05-13T10:51:22;9.82;;;6.70;;
19891;SDS011;10108;50.142;8.724;2023-05-13T10:53:50;9.07;;;6.60;;
19891;SDS011;10108;50.142;8.724;2023-05-13T10:56:22;9.10;;;6.80;;
19891;SDS011;10108;50.142;8.724;2023-05-13T10:59:03;8.43;;;6.55;;
19891;SDS011;10108;50.142;8.724;2023-05-13T11:01:36;9.88;;;6.55;;
19891;SDS011;10108;50.142;8.724;2023-05-13T11:04:15;9.73;;;6.60;;
19891;SDS011;10108;50.142;8.724;2023-05-13T11:06:46;9.68;;;6.50;;
19891;SDS011;10108;50.142;8.724;2023-05-13T11:09:16;9.90;;;6.30;;
19891;SDS011;10108;50.142;8.724;2023-05-13T11:11:57;10.60;;;6.40;;
19891;SDS011;10108;50.142;8.724;2023-05-13T11:14:25;9.93;;;6.72;;
19891;SDS011;10108;50.142;8.724;2023-05-13T11:16:52;9.38;;;6.30;;
19891;SDS011;10108;50.142;8.724;2023-05-13T11:19:32;10.95;;;6.10;;
19891;SDS011;10108;50.142;8.724;2023-05-13T11:24:33;7.90;;;6.22;;
19891;SDS011;10108;50.142;8.724;2023-05-13T11:27:11;11.02;;;6.65;;
19891;SDS011;10108;50.142;8.724;2023-05-13T11:29:51;9.23;;;6.28;;
19891;SDS011;10108;50.142;8.724;2023-05-13T11:32:53;9.85;;;6.43;;
19891;SDS011;10108;50.142;8.724;2023-05-13T11:35:25;12.35;;;6.43;;
19891;SDS011;10108;50.142;8.724;2023-05-13T11:37:56;9.98;;;6.97;;
19891;SDS011;10108;50.142;8.724;2023-05-13T11:40:25;10.15;;;6.28;;
19891;SDS011;10108;50.142;8.724;2023-05-13T11:42:52;9.02;;;6.25;;
19891;SDS011;10108;50.142;8.724;2023-05-13T11:45:21;10.18;;;6.20;;
19891;SDS011;10108;50.142;8.724;2023-05-13T11:47:48;10.10;;;5.72;;
19891;SDS011;10108;50.142;8.724;2023-05-13T11:50:21;11.23;;;6.55;;
19891;SDS011;10108;50.142;8.724;2023-05-13T11:52:56;9.70;;;6.07;;
19891;SDS011;10108;50.142;8.724;2023-05-13T11:55:24;9.27;;;6.13;;
19891;SDS011;10108;50.142;8.724;2023-05-13T11:57:55;9.48;;;6.55;;
19891;SDS011;10108;50.142;8.724;2023-05-13T12:00:29;9.07;;;6.28;;
19891;SDS011;10108;50.142;8.724;2023-05-13T12:02:56;11.30;;;6.38;;
19891;SDS011;10108;50.142;8.724;2023-05-13T12:05:24;10.50;;;6.25;;
19891;SDS011;10108;50.142;8.724;2023-05-13T12:07:51;14.60;;;6.63;;
19891;SDS011;10108;50.142;8.724;2023-05-13T12:10:21;8.32;;;6.15;;
19891;SDS011;10108;50.142;8.724;2023-05-13T12:12:48;10.65;;;6.93;;
19891;SDS011;10108;50.142;8.724;2023-05-13T12:15:15;10.70;;;6.88;;
19891;SDS011;10108;50.142;8.724;2023-05-13T12:17:42;10.55;;;6.07;;
19891;SDS011;10108;50.142;8.724;2023-05-13T12:20:16;7.78;;;5.82;;
19891;SDS011;10108;50.142;8.724;2023-05-13T12:27:57;12.23;;;6.20;;
19891;SDS011;10108;50.142;8.724;2023-05-13T12:30:24;11.65;;;6.20;;
19891;SDS011;10108;50.142;8.724;2023-05-13T12:32:50;9.95;;;5.43;;
19891;SDS011;10108;50.142;8.724;2023-05-13T12:35:16;18.38;;;5.53;;
19891;SDS011;10108;50.142;8.724;2023-05-13T12:37:42;10.63;;;5.40;;
19891;SDS011;10108;50.142;8.724;2023-05-13T12:40:11;8.48;;;5.15;;
19891;SDS011;10108;50.142;8.724;2023-05-13T12:42:38;8.40;;;5.30;;
19891;SDS011;10108;50.142;8.724;2023-05-13T12:45:09;6.57;;;5.00;;
19891;SDS011;10108;50.142;8.724;2023-05-13T12:47:48;7.47;;;5.25;;
19891;SDS011;10108;50.142;8.724;2023-05-13T12:50:15;7.43;;;5.30;;
19891;SDS011;10108;50.142;8.724;2023-05-13T12:52:41;9.10;;;5.40;;
19891;SDS011;10108;50.142;8.724;2023-05-13T12:55:07;7.38;;;5.78;;
19891;SDS011;10108;50.142;8.724;2023-05-13T12:57:34;7.22;;;5.63;;
19891;SDS011;10108;50.142;8.724;2023-05-13T13:00:00;8.90;;;5.50;;
19891;SDS011;10108;50.142;8.724;2023-05-13T13:02:26;7.55;;;5.78;;
19891;SDS011;10108;50.142;8.724;2023-05-13T13:04:52;6.75;;;5.60;;
19891;SDS011;10108;50.142;8.724;2023-05-13T13:07:19;7.53;;;5.78;;
19891;SDS011;10108;50.142;8.724;2023-05-13T13:09:45;9.15;;;5.85;;
19891;SDS011;10108;50.142;8.724;2023-05-13T13:12:11;7.63;;;5.43;;
19891;SDS011;10108;50.142;8.724;2023-05-13T13:14:37;9.43;;;5.50;;
19891;SDS011;10108;50.142;8.724;2023-05-13T13:17:03;8.48;;;5.30;;
19891;SDS011;10108;50.142;8.724;2023-05-13T13:19:29;9.80;;;5.40;;
19891;SDS011;10108;50.142;8.724;2023-05-13T13:21:56;8.30;;;5.40;;
19891;SDS011;10108;50.142;8.724;2023-05-13T13:24:22;6.60;;;5.15;;
19891;SDS011;10108;50.142;8.724;2023-05-13T13:26:48;9.32;;;5.65;;
19891;SDS011;10108;50.142;8.724;2023-05-13T13:29:14;6.15;;;5.20;;
19891;SDS011;10108;50.142;8.724;2023-05-13T13:31:40;10.50;;;6.10;;
19891;SDS011;10108;50.142;8.724;2023-05-13T13:34:07;7.55;;;5.53;;
19891;SDS011;10108;50.142;8.724;2023-05-13T13:36:34;10.73;;;5.95;;
19891;SDS011;10108;50.142;8.724;2023-05-13T13:39:00;11.50;;;5.90;;
19891;SDS011;10108;50.142;8.724;2023-05-13T13:41:27;8.23;;;5.60;;
19891;SDS011;10108;50.142;8.724;2023-05-13T13:43:53;8.38;;;5.85;;
19891;SDS011;10108;50.142;8.724;2023-05-13T13:46:19;10.80;;;5.78;;
19891;SDS011;10108;50.142;8.724;2023-05-13T13:48:45;7.85;;;5.68;;
19891;SDS011;10108;50.142;8.724;2023-05-13T13:51:11;9.70;;;6.40;;
19891;SDS011;10108;50.142;8.724;2023-05-13T13:53:37;10.45;;;6.45;;
19891;SDS011;10108;50.142;8.724;2023-05-13T13:56:04;10.07;;;6.25;;
19891;SDS011;10108;50.142;8.724;2023-05-13T13:58:30;8.50;;;6.05;;
19891;SDS011;10108;50.142;8.724;2023-05-13T14:00:57;9.23;;;6.50;;
19891;SDS011;10108;50.142;8.724;2023-05-13T14:03:23;10.38;;;6.20;;
19891;SDS011;10108;50.142;8.724;2023-05-13T14:05:49;9.23;;;6.50;;
19891;SDS011;10108;50.142;8.724;2023-05-13T14:08:16;9.35;;;6.07;;
19891;SDS011;10108;50.142;8.724;2023-05-13T14:10:42;13.43;;;6.72;;
19891;SDS011;10108;50.142;8.724;2023-05-13T14:13:08;9.82;;;5.93;;
19891;SDS011;10108;50.142;8.724;2023-05-13T14:15:34;9.88;;;6.13;;
19891;SDS011;10108;50.142;8.724;2023-05-13T14:18:06;8.48;;;6.32;;
19891;SDS011;10108;50.142;8.724;2023-05-13T14:20:33;8.80;;;5.40;;
19891;SDS011;10108;50.142;8.724;2023-05-13T14:23:01;7.60;;;5.60;;
19891;SDS011;10108;50.142;8.724;2023-05-13T14:25:27;9.73;;;5.68;;
19891;SDS011;10108;50.142;8.724;2023-05-13T14:27:53;7.72;;;5.75;;
19891;SDS011;10108;50.142;8.724;2023-05-13T14:30:19;10.40;;;6.07;;
19891;SDS011;10108;50.142;8.724;2023-05-13T14:32:45;7.97;;;5.78;;
19891;SDS011;10108;50.142;8.724;2023-05-13T14:35:12;8.10;;;5.57;;
19891;SDS011;10108;50.142;8.724;2023-05-13T14:37:39;9.05;;;6.03;;
19891;SDS011;10108;50.142;8.724;2023-05-13T14:40:05;9.05;;;6.10;;
19891;SDS011;10108;50.142;8.724;2023-05-13T14:42:32;9.10;;;5.95;;
19891;SDS011;10108;50.142;8.724;2023-05-13T14:44:58;7.82;;;5.60;;
19891;SDS011;10108;50.142;8.724;2023-05-13T14:47:24;9.95;;;5.53;;
19891;SDS011;10108;50.142;8.724;2023-05-13T14:49:50;8.80;;;5.90;;
19891;SDS011;10108;50.142;8.724;2023-05-13T14:52:16;8.50;;;5.53;;
19891;SDS011;10108;50.142;8.724;2023-05-13T14:54:42;12.18;;;5.93;;
19891;SDS011;10108;50.142;8.724;2023-05-13T14:57:09;9.80;;;5.95;;
19891;SDS011;10108;50.142;8.724;2023-05-13T14:59:35;9.38;;;6.38;;